sensor_id;sensor_type;location;lat;lon;timestamp;temperature;humidity
48686;DHT22;34485;51.536;3.816;2022-08-24T00:00:58;19.40;99.90
48686;DHT22;34485;51.536;3.816;2022-08-24T00:03:24;19.40;99.90
48686;DHT22;34485;51.536;3.816;2022-08-24T00:05:51;19.40;99.90
48686;DHT22;34485;51.536;3.816;2022-08-24T00:08:18;19.40;99.90
48686;DHT22;34485;51.536;3.816;2022-08-24T00:10:44;19.40;99.90
48686;DHT22;34485;51.536;3.816;2022-08-24T00:13:09;19.40;99.90
48686;DHT22;34485;51.536;3.816;2022-08-24T00:15:35;19.40;99.90
48686;DHT22;34485;51.536;3.816;2022-08-24T00:18:01;19.40;99.90
48686;DHT22;34485;51.536;3.816;2022-08-24T00:20:26;19.30;99.90
48686;DHT22;34485;51.536;3.816;2022-08-24T00:22:53;19.30;99.90
48686;DHT22;34485;51.536;3.816;2022-08-24T00:25:19;19.30;99.90
48686;DHT22;34485;51.536;3.816;2022-08-24T00:27:45;19.30;99.90
48686;DHT22;34485;51.536;3.816;2022-08-24T00:30:13;19.30;99.90
48686;DHT22;34485;51.536;3.816;2022-08-24T00:32:44;19.30;99.90
48686;DHT22;34485;51.536;3.816;2022-08-24T00:35:12;19.20;99.90
48686;DHT22;34485;51.536;3.816;2022-08-24T00:37:39;19.20;99.90
48686;DHT22;34485;51.536;3.816;2022-08-24T00:40:08;19.20;99.90
48686;DHT22;34485;51.536;3.816;2022-08-24T00:42:36;19.30;99.90
48686;DHT22;34485;51.536;3.816;2022-08-24T00:45:04;19.30;99.90
48686;DHT22;34485;51.536;3.816;2022-08-24T00:47:43;19.30;99.90
48686;DHT22;34485;51.536;3.816;2022-08-24T00:50:13;19.30;99.90
48686;DHT22;34485;51.536;3.816;2022-08-24T00:52:47;19.30;99.90
48686;DHT22;34485;51.536;3.816;2022-08-24T00:55:19;19.30;99.90
48686;DHT22;34485;51.536;3.816;2022-08-24T00:57:50;19.20;99.90
48686;DHT22;34485;51.536;3.816;2022-08-24T01:00:23;19.30;99.90
48686;DHT22;34485;51.536;3.816;2022-08-24T01:02:52;19.30;99.90
48686;DHT22;34485;51.536;3.816;2022-08-24T01:05:18;19.30;99.90
48686;DHT22;34485;51.536;3.816;2022-08-24T01:07:45;19.30;99.90
48686;DHT22;34485;51.536;3.816;2022-08-24T01:10:19;19.30;99.90
48686;DHT22;34485;51.536;3.816;2022-08-24T01:12:47;19.30;99.90
48686;DHT22;34485;51.536;3.816;2022-08-24T01:15:15;19.30;99.90
48686;DHT22;34485;51.536;3.816;2022-08-24T01:17:41;19.30;99.90
48686;DHT22;34485;51.536;3.816;2022-08-24T01:20:26;19.30;99.90
48686;DHT22;34485;51.536;3.816;2022-08-24T01:25:53;19.30;99.90
48686;DHT22;34485;51.536;3.816;2022-08-24T01:28:19;19.20;99.90
48686;DHT22;34485;51.536;3.816;2022-08-24T01:30:45;19.20;99.90
48686;DHT22;34485;51.536;3.816;2022-08-24T01:33:22;19.20;99.90
48686;DHT22;34485;51.536;3.816;2022-08-24T01:35:48;19.20;99.90
48686;DHT22;34485;51.536;3.816;2022-08-24T01:38:14;19.20;99.90
48686;DHT22;34485;51.536;3.816;2022-08-24T01:40:47;19.30;99.90
48686;DHT22;34485;51.536;3.816;2022-08-24T01:43:14;19.30;99.90
48686;DHT22;34485;51.536;3.816;2022-08-24T01:45:41;19.40;99.90
48686;DHT22;34485;51.536;3.816;2022-08-24T01:48:07;19.40;99.90
48686;DHT22;34485;51.536;3.816;2022-08-24T01:50:33;19.50;99.90
48686;DHT22;34485;51.536;3.816;2022-08-24T01:53:02;19.50;99.90
48686;DHT22;34485;51.536;3.816;2022-08-24T01:55:28;19.50;99.90
48686;DHT22;34485;51.536;3.816;2022-08-24T01:57:54;19.50;99.90
48686;DHT22;34485;51.536;3.816;2022-08-24T02:00:20;19.50;99.90
48686;DHT22;34485;51.536;3.816;2022-08-24T02:02:46;19.50;99.90
48686;DHT22;34485;51.536;3.816;2022-08-24T02:05:13;19.50;99.90
48686;DHT22;34485;51.536;3.816;2022-08-24T02:07:39;19.40;99.90
48686;DHT22;34485;51.536;3.816;2022-08-24T02:10:07;19.40;99.90
48686;DHT22;34485;51.536;3.816;2022-08-24T02:12:35;19.40;99.90
48686;DHT22;34485;51.536;3.816;2022-08-24T02:15:02;19.30;99.90
48686;DHT22;34485;51.536;3.816;2022-08-24T02:17:29;19.20;99.90
48686;DHT22;34485;51.536;3.816;2022-08-24T02:19:55;19.10;99.90
48686;DHT22;34485;51.536;3.816;2022-08-24T02:22:20;19.10;99.90
48686;DHT22;34485;51.536;3.816;2022-08-24T02:24:46;19.00;99.90
48686;DHT22;34485;51.536;3.816;2022-08-24T02:27:12;18.90;99.90
48686;DHT22;34485;51.536;3.816;2022-08-24T02:29:38;18.90;99.90
48686;DHT22;34485;51.536;3.816;2022-08-24T02:32:04;18.80;99.90
48686;DHT22;34485;51.536;3.816;2022-08-24T02:34:31;18.80;99.90
48686;DHT22;34485;51.536;3.816;2022-08-24T02:36:57;18.70;99.90
48686;DHT22;34485;51.536;3.816;2022-08-24T02:39:22;18.80;99.90
48686;DHT22;34485;51.536;3.816;2022-08-24T02:41:50;18.80;99.90
48686;DHT22;34485;51.536;3.816;2022-08-24T02:44:16;18.80;99.90
48686;DHT22;34485;51.536;3.816;2022-08-24T02:46:41;18.80;99.90
48686;DHT22;34485;51.536;3.816;2022-08-24T02:49:07;18.70;99.90
48686;DHT22;34485;51.536;3.816;2022-08-24T02:51:33;18.80;99.90
48686;DHT22;34485;51.536;3.816;2022-08-24T02:54:01;18.80;99.90
48686;DHT22;34485;51.536;3.816;2022-08-24T02:56:28;18.70;99.90
48686;DHT22;34485;51.536;3.816;2022-08-24T02:58:58;18.70;99.90
48686;DHT22;34485;51.536;3.816;2022-08-24T03:01:24;18.70;99.90
48686;DHT22;34485;51.536;3.816;2022-08-24T03:03:50;18.70;99.90
48686;DHT22;34485;51.536;3.816;2022-08-24T03:06:16;18.60;99.90
48686;DHT22;34485;51.536;3.816;2022-08-24T03:08:42;18.60;99.90
48686;DHT22;34485;51.536;3.816;2022-08-24T03:11:09;18.60;99.90
48686;DHT22;34485;51.536;3.816;2022-08-24T03:13:35;18.60;99.90
48686;DHT22;34485;51.536;3.816;2022-08-24T03:16:02;18.60;99.90
48686;DHT22;34485;51.536;3.816;2022-08-24T03:18:28;18.60;99.90
48686;DHT22;34485;51.536;3.816;2022-08-24T03:20:56;18.60;99.90
48686;DHT22;34485;51.536;3.816;2022-08-24T03:23:22;18.60;99.90
48686;DHT22;34485;51.536;3.816;2022-08-24T03:25:49;18.60;99.90
48686;DHT22;34485;51.536;3.816;2022-08-24T03:28:20;18.60;99.90
48686;DHT22;34485;51.536;3.816;2022-08-24T03:30:47;18.60;99.90
48686;DHT22;34485;51.536;3.816;2022-08-24T03:33:13;18.60;99.90
48686;DHT22;34485;51.536;3.816;2022-08-24T03:35:39;18.60;99.90
48686;DHT22;34485;51.536;3.816;2022-08-24T03:38:04;18.60;99.90
48686;DHT22;34485;51.536;3.816;2022-08-24T03:40:30;18.60;99.90
48686;DHT22;34485;51.536;3.816;2022-08-24T03:42:58;18.60;99.90
48686;DHT22;34485;51.536;3.816;2022-08-24T03:45:24;18.60;99.90
48686;DHT22;34485;51.536;3.816;2022-08-24T03:47:50;18.60;99.90
48686;DHT22;34485;51.536;3.816;2022-08-24T03:50:17;18.70;99.90
48686;DHT22;34485;51.536;3.816;2022-08-24T03:52:42;18.70;99.90
48686;DHT22;34485;51.536;3.816;2022-08-24T03:55:09;18.60;99.90
48686;DHT22;34485;51.536;3.816;2022-08-24T03:57:34;18.60;99.90
48686;DHT22;34485;51.536;3.816;2022-08-24T04:00:02;18.70;99.90
48686;DHT22;34485;51.536;3.816;2022-08-24T04:02:28;18.70;99.90
48686;DHT22;34485;51.536;3.816;2022-08-24T04:04:54;18.60;99.90
48686;DHT22;34485;51.536;3.816;2022-08-24T04:07:19;18.70;99.90
48686;DHT22;34485;51.536;3.816;2022-08-24T04:09:45;18.60;99.90
48686;DHT22;34485;51.536;3.816;2022-08-24T04:12:11;18.60;99.90
48686;DHT22;34485;51.536;3.816;2022-08-24T04:14:36;18.60;99.90
48686;DHT22;34485;51.536;3.816;2022-08-24T04:17:03;18.60;99.90
48686;DHT22;34485;51.536;3.816;2022-08-24T04:19:29;18.70;99.90
48686;DHT22;34485;51.536;3.816;2022-08-24T04:21:54;18.60;99.90
48686;DHT22;34485;51.536;3.816;2022-08-24T04:24:23;18.60;99.90
48686;DHT22;34485;51.536;3.816;2022-08-24T04:26:49;18.60;99.90
48686;DHT22;34485;51.536;3.816;2022-08-24T04:29:16;18.60;99.90
48686;DHT22;34485;51.536;3.816;2022-08-24T04:31:44;18.50;99.90
48686;DHT22;34485;51.536;3.816;2022-08-24T04:34:10;18.50;99.90
48686;DHT22;34485;51.536;3.816;2022-08-24T04:36:39;18.50;99.90
48686;DHT22;34485;51.536;3.816;2022-08-24T04:39:06;18.50;99.90
48686;DHT22;34485;51.536;3.816;2022-08-24T04:41:32;18.50;99.90
48686;DHT22;34485;51.536;3.816;2022-08-24T04:43:58;18.50;99.90
48686;DHT22;34485;51.536;3.816;2022-08-24T04:46:23;18.40;99.90
48686;DHT22;34485;51.536;3.816;2022-08-24T04:48:49;18.40;99.90
48686;DHT22;34485;51.536;3.816;2022-08-24T04:51:16;18.30;99.90
48686;DHT22;34485;51.536;3.816;2022-08-24T04:53:43;18.30;99.90
48686;DHT22;34485;51.536;3.816;2022-08-24T04:56:15;18.30;99.90
48686;DHT22;34485;51.536;3.816;2022-08-24T04:58:42;18.30;99.90
48686;DHT22;34485;51.536;3.816;2022-08-24T05:01:12;18.30;99.90
48686;DHT22;34485;51.536;3.816;2022-08-24T05:03:38;18.30;99.90
48686;DHT22;34485;51.536;3.816;2022-08-24T05:06:04;18.30;99.90
48686;DHT22;34485;51.536;3.816;2022-08-24T05:08:30;18.30;99.90
48686;DHT22;34485;51.536;3.816;2022-08-24T05:10:56;18.30;99.90
48686;DHT22;34485;51.536;3.816;2022-08-24T05:13:22;18.40;99.90
48686;DHT22;34485;51.536;3.816;2022-08-24T05:15:47;18.40;99.90
48686;DHT22;34485;51.536;3.816;2022-08-24T05:18:14;18.40;99.90
48686;DHT22;34485;51.536;3.816;2022-08-24T05:20:43;18.50;99.90
48686;DHT22;34485;51.536;3.816;2022-08-24T05:23:10;18.50;99.90
48686;DHT22;34485;51.536;3.816;2022-08-24T05:25:36;18.60;99.90
48686;DHT22;34485;51.536;3.816;2022-08-24T05:28:02;18.70;99.90
48686;DHT22;34485;51.536;3.816;2022-08-24T05:30:28;18.70;99.90
48686;DHT22;34485;51.536;3.816;2022-08-24T05:32:53;18.80;99.90
48686;DHT22;34485;51.536;3.816;2022-08-24T05:35:19;18.90;99.90
48686;DHT22;34485;51.536;3.816;2022-08-24T05:37:44;18.90;99.90
48686;DHT22;34485;51.536;3.816;2022-08-24T05:40:12;19.00;99.90
48686;DHT22;34485;51.536;3.816;2022-08-24T05:42:38;19.00;99.90
48686;DHT22;34485;51.536;3.816;2022-08-24T05:45:05;19.10;99.90
48686;DHT22;34485;51.536;3.816;2022-08-24T05:47:32;19.20;99.90
48686;DHT22;34485;51.536;3.816;2022-08-24T05:49:59;19.30;99.90
48686;DHT22;34485;51.536;3.816;2022-08-24T05:52:25;19.40;99.90
48686;DHT22;34485;51.536;3.816;2022-08-24T05:54:52;19.40;99.90
48686;DHT22;34485;51.536;3.816;2022-08-24T05:57:19;19.50;99.90
48686;DHT22;34485;51.536;3.816;2022-08-24T05:59:44;19.60;99.90
48686;DHT22;34485;51.536;3.816;2022-08-24T06:02:10;19.60;99.90
48686;DHT22;34485;51.536;3.816;2022-08-24T06:04:36;19.60;99.90
48686;DHT22;34485;51.536;3.816;2022-08-24T06:07:03;19.70;99.90
48686;DHT22;34485;51.536;3.816;2022-08-24T06:09:29;19.80;99.90
48686;DHT22;34485;51.536;3.816;2022-08-24T06:11:55;19.80;99.90
48686;DHT22;34485;51.536;3.816;2022-08-24T06:14:20;19.80;99.90
48686;DHT22;34485;51.536;3.816;2022-08-24T06:16:46;19.90;99.90
48686;DHT22;34485;51.536;3.816;2022-08-24T06:19:14;19.90;99.90
48686;DHT22;34485;51.536;3.816;2022-08-24T06:21:42;20.00;99.90
48686;DHT22;34485;51.536;3.816;2022-08-24T06:24:08;20.10;99.90
48686;DHT22;34485;51.536;3.816;2022-08-24T06:26:34;20.10;99.90
48686;DHT22;34485;51.536;3.816;2022-08-24T06:29:19;20.20;99.90
48686;DHT22;34485;51.536;3.816;2022-08-24T06:31:46;20.30;99.90
48686;DHT22;34485;51.536;3.816;2022-08-24T06:34:14;20.40;99.90
48686;DHT22;34485;51.536;3.816;2022-08-24T06:36:41;20.50;99.90
48686;DHT22;34485;51.536;3.816;2022-08-24T06:39:07;20.50;99.90
48686;DHT22;34485;51.536;3.816;2022-08-24T06:41:34;20.60;99.90
48686;DHT22;34485;51.536;3.816;2022-08-24T06:43:59;20.70;99.90
48686;DHT22;34485;51.536;3.816;2022-08-24T06:46:25;20.90;99.90
48686;DHT22;34485;51.536;3.816;2022-08-24T06:48:51;21.00;99.90
48686;DHT22;34485;51.536;3.816;2022-08-24T06:51:18;21.10;99.90
48686;DHT22;34485;51.536;3.816;2022-08-24T06:53:44;21.20;99.90
48686;DHT22;34485;51.536;3.816;2022-08-24T06:56:11;21.30;99.90
48686;DHT22;34485;51.536;3.816;2022-08-24T06:58:37;21.40;99.90
48686;DHT22;34485;51.536;3.816;2022-08-24T07:01:14;21.60;99.90
48686;DHT22;34485;51.536;3.816;2022-08-24T07:06:07;21.90;99.90
48686;DHT22;34485;51.536;3.816;2022-08-24T07:08:33;22.00;99.90
48686;DHT22;34485;51.536;3.816;2022-08-24T07:11:00;22.10;99.90
48686;DHT22;34485;51.536;3.816;2022-08-24T07:13:26;22.20;99.90
48686;DHT22;34485;51.536;3.816;2022-08-24T07:15:53;22.40;99.90
48686;DHT22;34485;51.536;3.816;2022-08-24T07:20:46;22.60;99.90
48686;DHT22;34485;51.536;3.816;2022-08-24T07:23:12;22.80;99.90
48686;DHT22;34485;51.536;3.816;2022-08-24T07:25:42;23.00;99.90
48686;DHT22;34485;51.536;3.816;2022-08-24T07:28:08;23.50;99.90
48686;DHT22;34485;51.536;3.816;2022-08-24T07:30:34;24.60;97.20
48686;DHT22;34485;51.536;3.816;2022-08-24T07:32:59;25.90;91.90
48686;DHT22;34485;51.536;3.816;2022-08-24T07:35:26;27.50;83.30
48686;DHT22;34485;51.536;3.816;2022-08-24T07:37:53;28.80;74.90
48686;DHT22;34485;51.536;3.816;2022-08-24T07:40:20;30.00;68.20
48686;DHT22;34485;51.536;3.816;2022-08-24T07:42:50;31.00;62.10
48686;DHT22;34485;51.536;3.816;2022-08-24T07:45:17;31.80;59.20
48686;DHT22;34485;51.536;3.816;2022-08-24T07:47:43;32.30;55.10
48686;DHT22;34485;51.536;3.816;2022-08-24T07:50:11;32.70;52.80
48686;DHT22;34485;51.536;3.816;2022-08-24T07:52:37;32.80;52.60
48686;DHT22;34485;51.536;3.816;2022-08-24T07:55:03;33.20;50.90
48686;DHT22;34485;51.536;3.816;2022-08-24T07:57:30;33.60;50.20
48686;DHT22;34485;51.536;3.816;2022-08-24T07:59:58;34.00;49.30
48686;DHT22;34485;51.536;3.816;2022-08-24T08:02:24;34.20;48.30
48686;DHT22;34485;51.536;3.816;2022-08-24T08:04:49;34.30;48.00
48686;DHT22;34485;51.536;3.816;2022-08-24T08:07:15;34.00;47.40
48686;DHT22;34485;51.536;3.816;2022-08-24T08:09:42;34.10;48.40
48686;DHT22;34485;51.536;3.816;2022-08-24T08:12:08;34.30;48.00
48686;DHT22;34485;51.536;3.816;2022-08-24T08:14:34;34.40;46.80
48686;DHT22;34485;51.536;3.816;2022-08-24T08:17:00;34.50;47.20
48686;DHT22;34485;51.536;3.816;2022-08-24T08:19:25;34.90;45.60
48686;DHT22;34485;51.536;3.816;2022-08-24T08:21:52;35.00;46.00
48686;DHT22;34485;51.536;3.816;2022-08-24T08:24:38;34.80;44.10
48686;DHT22;34485;51.536;3.816;2022-08-24T08:27:04;34.70;45.70
48686;DHT22;34485;51.536;3.816;2022-08-24T08:29:31;34.80;46.10
48686;DHT22;34485;51.536;3.816;2022-08-24T08:31:58;34.90;44.60
48686;DHT22;34485;51.536;3.816;2022-08-24T08:34:25;34.90;44.20
48686;DHT22;34485;51.536;3.816;2022-08-24T08:36:51;34.50;44.90
48686;DHT22;34485;51.536;3.816;2022-08-24T08:39:19;34.10;44.80
48686;DHT22;34485;51.536;3.816;2022-08-24T08:55:47;31.80;51.50
48686;DHT22;34485;51.536;3.816;2022-08-24T09:07:45;30.50;54.30
48686;DHT22;34485;51.536;3.816;2022-08-24T09:18:45;28.90;61.10
48686;DHT22;34485;51.536;3.816;2022-08-24T09:26:31;28.30;64.10
48686;DHT22;34485;51.536;3.816;2022-08-24T09:29:14;28.30;65.10
48686;DHT22;34485;51.536;3.816;2022-08-24T09:37:43;28.50;66.20
48686;DHT22;34485;51.536;3.816;2022-08-24T09:40:03;29.50;63.50
48686;DHT22;34485;51.536;3.816;2022-08-24T10:04:59;35.60;43.00
48686;DHT22;34485;51.536;3.816;2022-08-24T10:07:43;35.60;42.00
48686;DHT22;34485;51.536;3.816;2022-08-24T10:10:27;35.80;41.80
48686;DHT22;34485;51.536;3.816;2022-08-24T10:13:22;36.40;41.20
48686;DHT22;34485;51.536;3.816;2022-08-24T10:21:57;37.10;38.60
48686;DHT22;34485;51.536;3.816;2022-08-24T10:27:09;36.00;40.60
48686;DHT22;34485;51.536;3.816;2022-08-24T10:29:55;35.80;40.90
48686;DHT22;34485;51.536;3.816;2022-08-24T10:36:01;35.20;41.20
48686;DHT22;34485;51.536;3.816;2022-08-24T10:47:22;35.20;43.10
48686;DHT22;34485;51.536;3.816;2022-08-24T10:55:32;37.90;36.70
48686;DHT22;34485;51.536;3.816;2022-08-24T10:58:28;37.80;36.00
48686;DHT22;34485;51.536;3.816;2022-08-24T11:03:57;37.40;34.50
48686;DHT22;34485;51.536;3.816;2022-08-24T11:06:25;37.10;35.70
48686;DHT22;34485;51.536;3.816;2022-08-24T11:09:04;37.20;36.10
48686;DHT22;34485;51.536;3.816;2022-08-24T11:11:33;37.50;34.50
48686;DHT22;34485;51.536;3.816;2022-08-24T11:14:06;37.20;35.90
48686;DHT22;34485;51.536;3.816;2022-08-24T11:16:41;36.90;37.20
48686;DHT22;34485;51.536;3.816;2022-08-24T11:19:33;36.70;37.60
48686;DHT22;34485;51.536;3.816;2022-08-24T11:22:00;36.00;38.60
48686;DHT22;34485;51.536;3.816;2022-08-24T11:24:43;35.70;39.20
48686;DHT22;34485;51.536;3.816;2022-08-24T11:32:35;35.70;38.60
48686;DHT22;34485;51.536;3.816;2022-08-24T11:37:40;34.30;40.70
48686;DHT22;34485;51.536;3.816;2022-08-24T11:40:07;33.70;41.90
48686;DHT22;34485;51.536;3.816;2022-08-24T11:45:11;33.20;44.60
48686;DHT22;34485;51.536;3.816;2022-08-24T11:50:38;32.70;45.90
48686;DHT22;34485;51.536;3.816;2022-08-24T11:56:13;31.80;47.10
48686;DHT22;34485;51.536;3.816;2022-08-24T12:01:28;30.70;50.10
48686;DHT22;34485;51.536;3.816;2022-08-24T12:06:49;29.90;52.60
48686;DHT22;34485;51.536;3.816;2022-08-24T12:12:21;29.60;54.00
48686;DHT22;34485;51.536;3.816;2022-08-24T12:14:56;29.70;55.00
48686;DHT22;34485;51.536;3.816;2022-08-24T12:17:39;29.70;54.40
48686;DHT22;34485;51.536;3.816;2022-08-24T12:20:23;29.80;55.50
48686;DHT22;34485;51.536;3.816;2022-08-24T12:22:56;29.90;54.30
48686;DHT22;34485;51.536;3.816;2022-08-24T12:25:25;30.00;55.50
48686;DHT22;34485;51.536;3.816;2022-08-24T12:28:11;30.10;54.80
48686;DHT22;34485;51.536;3.816;2022-08-24T12:30:39;30.00;53.90
48686;DHT22;34485;51.536;3.816;2022-08-24T12:33:08;29.90;53.20
48686;DHT22;34485;51.536;3.816;2022-08-24T12:35:45;29.80;53.40
48686;DHT22;34485;51.536;3.816;2022-08-24T12:38:26;29.80;55.80
48686;DHT22;34485;51.536;3.816;2022-08-24T12:40:59;29.90;53.80
48686;DHT22;34485;51.536;3.816;2022-08-24T12:45:57;29.90;53.10
48686;DHT22;34485;51.536;3.816;2022-08-24T12:48:30;29.90;54.20
48686;DHT22;34485;51.536;3.816;2022-08-24T12:56:22;29.90;54.40
48686;DHT22;34485;51.536;3.816;2022-08-24T12:59:03;30.00;52.60
48686;DHT22;34485;51.536;3.816;2022-08-24T13:01:33;30.10;52.30
48686;DHT22;34485;51.536;3.816;2022-08-24T13:04:39;30.00;51.60
48686;DHT22;34485;51.536;3.816;2022-08-24T13:07:06;30.00;52.40
48686;DHT22;34485;51.536;3.816;2022-08-24T13:09:42;29.90;53.10
48686;DHT22;34485;51.536;3.816;2022-08-24T13:36:03;29.50;54.30
48686;DHT22;34485;51.536;3.816;2022-08-24T13:38:45;29.40;53.90
48686;DHT22;34485;51.536;3.816;2022-08-24T14:00:45;29.20;53.80
48686;DHT22;34485;51.536;3.816;2022-08-24T14:06:36;29.50;51.10
48686;DHT22;34485;51.536;3.816;2022-08-24T14:09:19;29.60;51.60
48686;DHT22;34485;51.536;3.816;2022-08-24T14:17:40;29.60;51.50
48686;DHT22;34485;51.536;3.816;2022-08-24T14:25:48;29.40;53.30
48686;DHT22;34485;51.536;3.816;2022-08-24T14:28:40;29.40;52.00
48686;DHT22;34485;51.536;3.816;2022-08-24T14:31:26;29.40;51.80
48686;DHT22;34485;51.536;3.816;2022-08-24T14:34:12;29.30;52.30
48686;DHT22;34485;51.536;3.816;2022-08-24T14:36:47;29.30;53.80
48686;DHT22;34485;51.536;3.816;2022-08-24T14:42:16;29.20;60.40
48686;DHT22;34485;51.536;3.816;2022-08-24T14:44:50;29.10;60.60
48686;DHT22;34485;51.536;3.816;2022-08-24T14:50:23;29.40;62.90
48686;DHT22;34485;51.536;3.816;2022-08-24T14:55:29;29.50;57.40
48686;DHT22;34485;51.536;3.816;2022-08-24T15:04:01;29.60;60.70
48686;DHT22;34485;51.536;3.816;2022-08-24T15:06:50;29.60;59.50
48686;DHT22;34485;51.536;3.816;2022-08-24T15:09:32;29.40;58.90
48686;DHT22;34485;51.536;3.816;2022-08-24T15:15:20;29.30;59.20
48686;DHT22;34485;51.536;3.816;2022-08-24T15:20:54;29.10;57.20
48686;DHT22;34485;51.536;3.816;2022-08-24T15:26:14;29.00;59.00
48686;DHT22;34485;51.536;3.816;2022-08-24T15:28:49;29.00;59.90
48686;DHT22;34485;51.536;3.816;2022-08-24T15:31:20;28.90;67.00
48686;DHT22;34485;51.536;3.816;2022-08-24T15:33:53;28.80;67.20
48686;DHT22;34485;51.536;3.816;2022-08-24T15:36:19;28.70;69.10
48686;DHT22;34485;51.536;3.816;2022-08-24T15:38:45;28.70;69.30
48686;DHT22;34485;51.536;3.816;2022-08-24T15:44:07;28.60;68.50
48686;DHT22;34485;51.536;3.816;2022-08-24T15:46:39;28.60;70.10
48686;DHT22;34485;51.536;3.816;2022-08-24T15:49:17;28.70;69.30
48686;DHT22;34485;51.536;3.816;2022-08-24T15:51:51;28.90;70.20
48686;DHT22;34485;51.536;3.816;2022-08-24T15:56:52;29.00;69.50
48686;DHT22;34485;51.536;3.816;2022-08-24T16:05:19;29.00;69.70
48686;DHT22;34485;51.536;3.816;2022-08-24T16:10:45;29.10;69.00
48686;DHT22;34485;51.536;3.816;2022-08-24T16:21:14;29.20;66.10
48686;DHT22;34485;51.536;3.816;2022-08-24T16:23:44;29.30;66.60
48686;DHT22;34485;51.536;3.816;2022-08-24T16:26:31;29.40;65.40
48686;DHT22;34485;51.536;3.816;2022-08-24T16:28:58;29.50;63.10
48686;DHT22;34485;51.536;3.816;2022-08-24T16:34:21;29.50;64.60
48686;DHT22;34485;51.536;3.816;2022-08-24T16:36:48;29.50;62.10
48686;DHT22;34485;51.536;3.816;2022-08-24T16:39:14;29.40;59.80
48686;DHT22;34485;51.536;3.816;2022-08-24T16:41:40;29.30;57.90
48686;DHT22;34485;51.536;3.816;2022-08-24T16:44:07;29.20;57.20
48686;DHT22;34485;51.536;3.816;2022-08-24T16:46:35;29.00;56.90
48686;DHT22;34485;51.536;3.816;2022-08-24T16:49:01;28.80;57.90
48686;DHT22;34485;51.536;3.816;2022-08-24T16:51:26;28.60;59.20
48686;DHT22;34485;51.536;3.816;2022-08-24T16:53:53;28.40;61.20
48686;DHT22;34485;51.536;3.816;2022-08-24T16:56:19;28.30;61.10
48686;DHT22;34485;51.536;3.816;2022-08-24T16:58:46;28.20;62.30
48686;DHT22;34485;51.536;3.816;2022-08-24T17:01:12;28.00;62.20
48686;DHT22;34485;51.536;3.816;2022-08-24T17:03:38;27.90;62.70
48686;DHT22;34485;51.536;3.816;2022-08-24T17:06:04;27.80;63.40
48686;DHT22;34485;51.536;3.816;2022-08-24T17:08:30;27.70;64.20
48686;DHT22;34485;51.536;3.816;2022-08-24T17:10:56;27.70;64.00
48686;DHT22;34485;51.536;3.816;2022-08-24T17:13:22;27.70;64.00
48686;DHT22;34485;51.536;3.816;2022-08-24T17:15:48;27.70;64.40
48686;DHT22;34485;51.536;3.816;2022-08-24T17:18:14;27.70;64.40
48686;DHT22;34485;51.536;3.816;2022-08-24T17:20:44;27.80;64.00
48686;DHT22;34485;51.536;3.816;2022-08-24T17:23:09;27.80;64.70
48686;DHT22;34485;51.536;3.816;2022-08-24T17:25:36;27.80;64.90
48686;DHT22;34485;51.536;3.816;2022-08-24T17:28:05;27.80;66.30
48686;DHT22;34485;51.536;3.816;2022-08-24T17:30:31;27.80;67.70
48686;DHT22;34485;51.536;3.816;2022-08-24T17:32:57;27.80;69.10
48686;DHT22;34485;51.536;3.816;2022-08-24T17:35:23;27.80;74.70
48686;DHT22;34485;51.536;3.816;2022-08-24T17:37:51;27.70;76.80
48686;DHT22;34485;51.536;3.816;2022-08-24T17:40:19;27.60;76.30
48686;DHT22;34485;51.536;3.816;2022-08-24T17:42:45;27.50;75.70
48686;DHT22;34485;51.536;3.816;2022-08-24T17:45:11;27.40;75.40
48686;DHT22;34485;51.536;3.816;2022-08-24T17:47:38;27.40;74.20
48686;DHT22;34485;51.536;3.816;2022-08-24T17:50:04;27.30;74.70
48686;DHT22;34485;51.536;3.816;2022-08-24T17:52:35;27.20;75.00
48686;DHT22;34485;51.536;3.816;2022-08-24T17:55:00;27.20;75.90
48686;DHT22;34485;51.536;3.816;2022-08-24T17:57:26;27.10;77.20
48686;DHT22;34485;51.536;3.816;2022-08-24T17:59:52;27.10;79.30
48686;DHT22;34485;51.536;3.816;2022-08-24T18:02:18;27.00;80.40
48686;DHT22;34485;51.536;3.816;2022-08-24T18:04:44;26.90;81.40
48686;DHT22;34485;51.536;3.816;2022-08-24T18:07:12;26.80;81.70
48686;DHT22;34485;51.536;3.816;2022-08-24T18:09:45;26.70;81.90
48686;DHT22;34485;51.536;3.816;2022-08-24T18:12:18;26.60;82.00
48686;DHT22;34485;51.536;3.816;2022-08-24T18:14:43;26.50;82.70
48686;DHT22;34485;51.536;3.816;2022-08-24T18:17:14;26.50;83.60
48686;DHT22;34485;51.536;3.816;2022-08-24T18:19:42;26.40;84.80
48686;DHT22;34485;51.536;3.816;2022-08-24T18:22:09;26.30;85.60
48686;DHT22;34485;51.536;3.816;2022-08-24T18:24:35;26.20;86.80
48686;DHT22;34485;51.536;3.816;2022-08-24T18:27:07;26.20;89.20
48686;DHT22;34485;51.536;3.816;2022-08-24T18:29:34;26.10;89.40
48686;DHT22;34485;51.536;3.816;2022-08-24T18:31:59;26.00;90.40
48686;DHT22;34485;51.536;3.816;2022-08-24T18:34:25;25.90;91.20
48686;DHT22;34485;51.536;3.816;2022-08-24T18:36:51;25.80;91.80
48686;DHT22;34485;51.536;3.816;2022-08-24T18:39:18;25.70;92.20
48686;DHT22;34485;51.536;3.816;2022-08-24T18:41:45;25.60;92.80
48686;DHT22;34485;51.536;3.816;2022-08-24T18:44:11;25.60;93.30
48686;DHT22;34485;51.536;3.816;2022-08-24T18:46:38;25.50;94.00
48686;DHT22;34485;51.536;3.816;2022-08-24T18:49:05;25.50;94.60
48686;DHT22;34485;51.536;3.816;2022-08-24T18:51:32;25.40;94.90
48686;DHT22;34485;51.536;3.816;2022-08-24T18:54:09;25.40;95.40
48686;DHT22;34485;51.536;3.816;2022-08-24T18:56:35;25.30;95.80
48686;DHT22;34485;51.536;3.816;2022-08-24T18:59:01;25.20;96.00
48686;DHT22;34485;51.536;3.816;2022-08-24T19:01:28;25.20;96.20
48686;DHT22;34485;51.536;3.816;2022-08-24T19:03:54;25.10;96.20
48686;DHT22;34485;51.536;3.816;2022-08-24T19:06:20;25.00;96.30
48686;DHT22;34485;51.536;3.816;2022-08-24T19:08:47;24.90;96.30
48686;DHT22;34485;51.536;3.816;2022-08-24T19:11:13;24.90;95.90
48686;DHT22;34485;51.536;3.816;2022-08-24T19:13:41;24.80;95.70
48686;DHT22;34485;51.536;3.816;2022-08-24T19:16:08;24.80;95.10
48686;DHT22;34485;51.536;3.816;2022-08-24T19:18:34;24.80;95.00
48686;DHT22;34485;51.536;3.816;2022-08-24T19:20:59;24.80;95.10
48686;DHT22;34485;51.536;3.816;2022-08-24T19:23:27;24.80;95.10
48686;DHT22;34485;51.536;3.816;2022-08-24T19:25:54;24.80;95.00
48686;DHT22;34485;51.536;3.816;2022-08-24T19:28:22;24.80;95.00
48686;DHT22;34485;51.536;3.816;2022-08-24T19:30:48;24.70;94.70
48686;DHT22;34485;51.536;3.816;2022-08-24T19:33:36;24.70;94.50
48686;DHT22;34485;51.536;3.816;2022-08-24T19:36:02;24.60;94.90
48686;DHT22;34485;51.536;3.816;2022-08-24T19:38:27;24.50;95.20
48686;DHT22;34485;51.536;3.816;2022-08-24T19:40:55;24.40;95.50
48686;DHT22;34485;51.536;3.816;2022-08-24T19:43:24;24.30;96.00